Time;durP1;ratioP1;P1;durP2;ratioP2;P2;SDS_P1;SDS_P2;PMS_P1;PMS_P2;Temp;Humidity;BMP_temperature;BMP_pressure;BME280_temperature;BME280_humidity;BME280_pressure;Samples;Min_cycle;Max_cycle;Signal;HPM_P1;HPM_P2
2023/08/10 00:01:40;;;;;;;0.88;0.65;;;;;;;11.50;92.56;151569.22;10630909;27;20035;-71
2023/08/10 00:06:42;;;;;;;2.60;1.02;;;;;;;11.82;91.92;151649.31;10632297;27;20050;-71
2023/08/10 00:11:44;;;;;;;2.58;0.85;;;;;;;11.44;94.37;151553.72;10631354;27;20035;-71
2023/08/10 00:16:45;;;;;;;1.80;0.90;;;;;;;11.72;92.86;151623.50;10630846;27;20059;-70
2023/08/10 00:21:47;;;;;;;2.40;0.90;;;;;;;11.53;92.92;151575.69;10630409;27;20501;-70
2023/08/10 00:26:49;;;;;;;1.58;0.88;;;;;;;11.29;94.63;151515.00;10630888;27;20095;-70
2023/08/10 00:31:51;;;;;;;2.30;1.02;;;;;;;11.15;96.90;151480.06;10610865;27;20062;-71
2023/08/10 00:36:53;;;;;;;3.35;1.30;;;;;;;11.06;97.06;151456.81;10610083;27;20055;-70
2023/08/10 00:41:54;;;;;;;2.65;1.40;;;;;;;10.90;98.30;151416.81;10609668;27;20088;-70
2023/08/10 00:46:58;;;;;;;3.63;1.88;;;;;;;11.08;97.72;151462.00;10627548;27;20043;-70
2023/08/10 00:52:01;;;;;;;3.20;2.10;;;;;;;11.14;97.10;151477.50;10627574;27;20035;-70
2023/08/10 00:57:04;;;;;;;3.42;1.77;;;;;;;11.11;97.56;151469.72;10608665;27;20059;-75
2023/08/10 01:02:06;;;;;;;3.42;1.77;;;;;;;11.08;96.90;151462.00;10608562;27;20466;-73
2023/08/10 01:07:22;;;;;;;2.80;1.77;;;;;;;11.17;96.43;151483.97;10626990;27;20039;-73
2023/08/10 01:12:35;;;;;;;2.92;1.77;;;;;;;10.81;100.00;151394.84;10608640;27;20047;-74
2023/08/10 01:17:47;;;;;;;4.05;1.80;;;;;;;10.76;100.00;151380.66;10608836;27;20051;-74
2023/08/10 01:23:11;;;;;;;3.40;1.92;;;;;;;11.11;97.36;151471.06;10609068;27;20047;-74
2023/08/10 01:28:13;;;;;;;2.83;2.03;;;;;;;10.61;100.00;151344.47;10627520;27;20074;-74
2023/08/10 01:33:16;;;;;;;3.15;2.45;;;;;;;10.68;100.00;151360.00;10608006;27;20043;-74
2023/08/10 01:38:18;;;;;;;3.78;2.10;;;;;;;10.71;100.00;151369.00;10608737;27;20046;-74
2023/08/10 01:43:19;;;;;;;3.92;2.67;;;;;;;10.55;100.00;151327.72;10625893;27;20065;-74
2023/08/10 01:48:27;;;;;;;3.28;1.50;;;;;;;10.77;100.00;151383.22;10606344;27;20081;-74
2023/08/10 01:53:34;;;;;;;2.65;2.30;;;;;;;10.46;100.00;151305.75;10626019;27;20035;-74
2023/08/10 01:58:37;;;;;;;3.30;2.42;;;;;;;10.40;100.00;151288.94;10626601;27;20075;-74
2023/08/10 02:03:39;;;;;;;3.88;2.10;;;;;;;10.29;100.00;151261.84;10625830;28;20100;-74
2023/08/10 02:08:41;;;;;;;3.40;1.92;;;;;;;10.27;100.00;151258.00;10607506;28;20043;-74
2023/08/10 02:13:43;;;;;;;3.80;1.48;;;;;;;10.27;100.00;151256.66;10608055;28;20048;-74
2023/08/10 02:18:45;;;;;;;2.25;1.63;;;;;;;10.60;100.00;151340.63;10607466;28;20043;-74
2023/08/10 02:23:47;;;;;;;2.42;1.63;;;;;;;10.73;100.00;151372.91;10625085;28;20031;-74
2023/08/10 02:28:49;;;;;;;1.90;1.45;;;;;;;10.66;100.00;151356.09;10607451;28;20386;-74
2023/08/10 02:33:51;;;;;;;3.38;1.65;;;;;;;10.41;100.00;151292.84;10606516;28;20043;-74
2023/08/10 02:38:53;;;;;;;1.75;1.17;;;;;;;10.30;100.00;151265.72;10624810;28;20576;-75
2023/08/10 02:43:55;;;;;;;13.02;9.52;;;;;;;10.26;100.00;151254.09;10624798;28;20035;-75
2023/08/10 02:48:57;;;;;;;23.90;14.50;;;;;;;10.31;100.00;151267.00;10625065;28;20047;-74
2023/08/10 02:53:58;;;;;;;32.22;17.13;;;;;;;10.39;100.00;151287.66;10626536;28;20481;-74
2023/08/10 02:59:00;;;;;;;30.42;15.38;;;;;;;10.47;100.00;151308.31;10611015;27;20066;-75
2023/08/10 03:04:02;;;;;;;22.00;13.93;;;;;;;10.91;100.00;151418.09;10633954;27;20043;-74
2023/08/10 03:09:04;;;;;;;15.43;10.50;;;;;;;10.54;100.00;151325.13;10633428;27;20070;-74
2023/08/10 03:14:06;;;;;;;26.27;14.45;;;;;;;10.30;100.00;151264.44;10615204;27;20208;-75
2023/08/10 03:19:09;;;;;;;20.90;11.90;;;;;;;10.30;100.00;151265.72;10615031;27;20543;-74
2023/08/10 03:24:12;;;;;;;18.85;10.75;;;;;;;10.05;100.00;151201.16;10614511;27;20413;-74
2023/08/10 03:29:14;;;;;;;8.40;5.97;;;;;;;9.89;100.00;151161.13;10614787;27;20130;-74
2023/08/10 03:34:16;;;;;;;10.35;6.13;;;;;;;10.09;100.00;151212.78;10614424;27;20063;-74
2023/08/10 03:39:18;;;;;;;6.78;4.60;;;;;;;10.04;100.00;151199.84;10634418;27;20130;-74
2023/08/10 03:44:20;;;;;;;5.35;3.25;;;;;;;9.91;100.00;151165.00;10614599;27;20132;-74
2023/08/10 03:49:22;;;;;;;4.88;2.50;;;;;;;9.77;100.00;151131.44;10614031;27;20043;-74
2023/08/10 03:54:24;;;;;;;3.55;2.30;;;;;;;9.76;100.00;151127.59;10633344;27;20043;-74
2023/08/10 03:59:28;;;;;;;2.75;2.00;;;;;;;9.76;100.00;151127.59;10632889;27;20035;-74
2023/08/10 04:04:30;;;;;;;4.00;2.17;;;;;;;9.82;100.00;151144.34;10612737;27;20088;-75
2023/08/10 04:09:31;;;;;;;4.03;3.25;;;;;;;9.82;100.00;151143.06;10612312;27;20058;-74
2023/08/10 04:14:33;;;;;;;7.03;4.97;;;;;;;9.78;100.00;151132.72;10612379;27;20043;-75
2023/08/10 04:19:35;;;;;;;9.45;5.93;;;;;;;9.85;100.00;151150.81;10630274;27;20439;-75
2023/08/10 04:24:37;;;;;;;13.52;7.72;;;;;;;10.19;100.00;151236.00;10630397;27;20047;-74
2023/08/10 04:29:44;;;;;;;16.77;12.55;;;;;;;10.18;100.00;151234.72;10629722;27;20497;-74
2023/08/10 04:34:45;;;;;;;18.70;13.25;;;;;;;9.96;100.00;151177.88;10629316;27;20039;-74
2023/08/10 04:39:47;;;;;;;24.60;14.60;;;;;;;9.90;100.00;151162.41;10629652;27;20047;-75
2023/08/10 04:44:49;;;;;;;22.92;14.48;;;;;;;9.92;100.00;151167.63;10630168;27;20039;-74
2023/08/10 04:49:51;;;;;;;14.38;9.82;;;;;;;9.99;100.00;151186.94;10628597;27;20042;-74
2023/08/10 04:54:52;;;;;;;5.75;4.18;;;;;;;10.08;100.00;151208.88;10628858;27;20039;-74
2023/08/10 04:59:54;;;;;;;5.43;2.42;;;;;;;10.22;100.00;151245.00;10627775;27;20053;-74
2023/08/10 05:04:56;;;;;;;3.95;2.97;;;;;;;10.38;100.00;151285.09;10627800;27;20130;-75
2023/08/10 05:09:58;;;;;;;9.20;3.97;;;;;;;10.63;100.00;151347.09;10626929;27;20058;-75
2023/08/10 05:15:00;;;;;;;6.75;4.78;;;;;;;11.01;100.00;151443.91;10627715;27;20039;-74
2023/08/10 05:20:10;;;;;;;12.07;6.03;;;;;;;11.02;100.00;151446.47;10608580;27;20051;-75
2023/08/10 05:25:12;;;;;;;47.80;17.88;;;;;;;11.23;100.00;151499.47;10609331;27;20552;-74
2023/08/10 05:30:17;;;;;;;29.40;14.65;;;;;;;11.63;99.42;151602.81;10627095;27;20420;-74
2023/08/10 05:35:20;;;;;;;29.23;13.10;;;;;;;11.56;99.13;151584.75;10626771;27;20481;-75
2023/08/10 05:40:23;;;;;;;23.90;12.50;;;;;;;11.76;99.51;151635.13;10627188;27;20077;-75
2023/08/10 05:45:26;;;;;;;16.05;8.75;;;;;;;12.12;95.68;151725.63;10626443;27;20039;-74
2023/08/10 05:50:27;;;;;;;12.68;8.52;;;;;;;12.14;95.41;151730.84;10627591;27;20133;-75
2023/08/10 05:55:29;;;;;;;16.08;10.02;;;;;;;12.31;93.44;151773.50;10626031;27;20046;-75
2023/08/10 06:00:31;;;;;;;15.23;7.65;;;;;;;12.49;93.02;151818.75;10626089;27;20122;-74
2023/08/10 06:05:33;;;;;;;13.10;7.72;;;;;;;13.11;89.56;151977.84;10626401;28;20051;-74
2023/08/10 06:10:35;;;;;;;7.82;5.50;;;;;;;13.76;85.32;152140.88;10625998;28;20114;-74
2023/08/10 06:15:37;;;;;;;8.70;5.65;;;;;;;14.80;78.53;152406.38;10627362;28;20448;-74
2023/08/10 06:20:39;;;;;;;7.60;5.47;;;;;;;15.26;75.36;152522.94;10627118;28;20046;-74
2023/08/10 06:25:40;;;;;;;8.60;6.28;;;;;;;15.78;72.11;152655.19;10626461;28;20398;-73
2023/08/10 06:30:42;;;;;;;10.32;7.00;;;;;;;16.17;70.35;152753.72;10608415;28;20381;-74
2023/08/10 06:35:44;;;;;;;7.63;5.15;;;;;;;16.74;66.97;152899.00;10632094;27;20031;-73
2023/08/10 06:40:46;;;;;;;6.05;3.83;;;;;;;17.43;65.34;153074.09;10616906;27;20050;-77
2023/08/10 06:45:47;;;;;;;7.55;4.72;;;;;;;17.56;64.76;153107.84;10633939;27;20081;-76
2023/08/10 06:50:49;;;;;;;6.40;4.18;;;;;;;17.53;62.47;153100.09;10633519;27;20121;-76
2023/08/10 06:55:51;;;;;;;6.68;2.85;;;;;;;17.96;63.45;153209.13;10614793;27;20508;-71
2023/08/10 07:01:00;;;;;;;2.60;1.80;;;;;;;18.31;58.96;153297.41;10633632;27;20511;-71
2023/08/10 07:06:03;;;;;;;7.32;2.28;;;;;;;18.40;58.25;153322.06;10632352;27;20039;-71
2023/08/10 07:11:04;;;;;;;3.75;1.70;;;;;;;18.47;59.53;153338.97;10632365;27;20408;-71
2023/08/10 07:16:06;;;;;;;2.75;1.50;;;;;;;18.67;59.63;153390.88;10632338;27;20039;-71
2023/08/10 07:21:08;;;;;;;2.47;1.40;;;;;;;18.50;60.22;153345.44;10632454;27;20070;-70
2023/08/10 07:26:10;;;;;;;3.00;1.10;;;;;;;18.51;57.39;153348.06;10633368;27;20054;-71
2023/08/10 07:31:12;;;;;;;2.47;1.10;;;;;;;18.56;60.86;153362.34;10633644;27;20104;-71
2023/08/10 07:36:14;;;;;;;1.67;1.00;;;;;;;18.71;57.65;153400.03;10594097;27;20048;-72
2023/08/10 07:41:15;;;;;;;1.90;1.00;;;;;;;18.68;56.67;153392.19;10623877;27;20556;-71
2023/08/10 07:46:17;;;;;;;3.60;1.27;;;;;;;18.70;56.49;153396.16;10588162;27;20044;-71
2023/08/10 07:51:19;;;;;;;4.35;0.95;;;;;;;18.84;55.88;153432.50;10589567;28;20463;-71
2023/08/10 07:56:21;;;;;;;2.40;0.98;;;;;;;19.09;54.78;153496.19;10590188;28;20079;-72
2023/08/10 08:01:22;;;;;;;3.13;1.10;;;;;;;19.07;57.17;153490.97;10590351;28;20044;-72
2023/08/10 08:06:24;;;;;;;2.67;0.90;;;;;;;19.31;55.43;153552.03;10589565;28;20123;-73
2023/08/10 08:11:26;;;;;;;3.90;1.20;;;;;;;19.42;55.02;153581.91;10626625;27;20031;-73
2023/08/10 08:16:28;;;;;;;1.58;0.85;;;;;;;19.59;53.93;153623.50;10631819;27;20054;-72
2023/08/10 08:21:33;;;;;;;5.33;1.43;;;;;;;19.89;54.26;153700.22;10631937;27;20122;-72
2023/08/10 08:26:37;;;;;;;1.75;0.93;;;;;;;19.81;51.86;153679.44;10632136;27;20082;-73
2023/08/10 08:31:39;;;;;;;3.72;0.90;;;;;;;20.19;52.71;153775.59;10631037;27;20043;-72
2023/08/10 08:36:41;;;;;;;1.30;0.70;;;;;;;20.19;53.19;153776.94;10631575;27;20545;-71
2023/08/10 08:41:45;;;;;;;1.00;0.65;;;;;;;20.32;46.26;153810.72;10613162;27;20046;-71
2023/08/10 08:46:48;;;;;;;0.82;0.57;;;;;;;20.73;41.85;153913.50;10631174;27;20039;-71
2023/08/10 08:51:50;;;;;;;0.60;0.38;;;;;;;20.72;43.17;153910.84;10630844;27;20118;-72
2023/08/10 08:56:52;;;;;;;0.47;0.30;;;;;;;21.31;39.22;154061.78;10629774;27;20408;-71
2023/08/10 09:01:55;;;;;;;0.63;0.40;;;;;;;21.36;40.18;154076.13;10629878;27;20043;-71
2023/08/10 09:07:02;;;;;;;0.52;0.32;;;;;;;21.35;40.92;154073.53;10629605;27;20043;-71
2023/08/10 09:12:37;;;;;;;0.77;0.43;;;;;;;21.70;39.21;154162.00;10629853;27;20043;-72
2023/08/10 09:17:46;;;;;;;1.03;0.43;;;;;;;21.57;39.53;154128.19;10610024;27;20059;-72
2023/08/10 09:22:53;;;;;;;0.50;0.40;;;;;;;21.96;40.89;154227.03;10630136;27;20072;-71
2023/08/10 09:27:54;;;;;;;1.27;0.80;;;;;;;22.04;40.00;154247.88;10631517;27;20047;-71
2023/08/10 09:32:56;;;;;;;0.80;0.50;;;;;;;22.49;38.79;154362.47;10630443;27;20046;-72
2023/08/10 09:38:04;;;;;;;1.02;0.40;;;;;;;22.57;39.43;154384.59;10629140;27;20114;-72
2023/08/10 09:43:09;;;;;;;0.50;0.50;;;;;;;22.70;39.73;154415.88;10630020;27;20084;-71
2023/08/10 09:48:14;;;;;;;0.98;0.40;;;;;;;22.98;40.65;154488.88;10628453;27;20070;-71
2023/08/10 09:53:16;;;;;;;0.98;0.60;;;;;;;23.20;39.82;154544.88;10626798;27;20035;-71
2023/08/10 09:58:18;;;;;;;0.98;0.50;;;;;;;23.63;35.71;154654.28;10608659;27;20142;-72
2023/08/10 10:03:22;;;;;;;1.38;0.55;;;;;;;22.77;38.88;154434.13;10627443;27;20126;-71
2023/08/10 10:08:29;;;;;;;0.82;0.60;;;;;;;23.16;37.69;154535.75;10627632;27;20121;-71
2023/08/10 10:13:32;;;;;;;0.88;0.65;;;;;;;23.04;36.69;154504.47;10627253;28;20401;-72
2023/08/10 10:18:35;;;;;;;0.70;0.60;;;;;;;22.96;39.31;154482.34;10605075;28;20051;-71
2023/08/10 10:23:40;;;;;;;0.65;0.52;;;;;;;23.15;38.59;154533.16;10582707;28;20477;-71
2023/08/10 10:28:42;;;;;;;0.77;0.67;;;;;;;23.41;41.22;154599.53;10567707;28;20044;-71
2023/08/10 10:34:04;;;;;;;0.70;0.60;;;;;;;24.63;38.01;154911.13;10585727;28;20485;-71
2023/08/10 10:39:11;;;;;;;0.80;0.60;;;;;;;24.03;38.02;154755.94;10585995;28;20122;-71
2023/08/10 10:44:13;;;;;;;1.50;0.70;;;;;;;23.11;40.51;154521.44;10566031;28;20035;-70
2023/08/10 10:49:20;;;;;;;1.50;1.05;;;;;;;22.60;39.50;154391.13;10584611;28;20512;-72
2023/08/10 10:54:22;;;;;;;0.70;0.70;;;;;;;22.50;39.90;154366.41;10583891;28;20035;-72
2023/08/10 10:59:25;;;;;;;0.85;0.70;;;;;;;22.92;39.30;154473.22;10584147;28;20047;-72
2023/08/10 11:04:26;;;;;;;0.50;0.50;;;;;;;22.71;40.57;154418.47;10584283;28;20063;-72
2023/08/10 11:09:28;;;;;;;0.75;0.63;;;;;;;22.45;40.11;154352.09;10583872;28;20553;-71
2023/08/10 11:14:30;;;;;;;0.60;0.60;;;;;;;22.89;39.16;154466.72;10566146;28;20063;-71
2023/08/10 11:19:33;;;;;;;1.45;0.70;;;;;;;22.26;42.00;154303.91;10586164;28;20051;-72
2023/08/10 11:24:35;;;;;;;1.15;0.70;;;;;;;22.00;40.36;154238.81;10590566;28;20046;-71
2023/08/10 11:29:36;;;;;;;0.98;0.95;;;;;;;21.79;43.05;154185.44;10590766;28;20048;-72
2023/08/10 11:34:38;;;;;;;1.00;0.88;;;;;;;21.58;43.11;154132.06;10591154;28;20043;-71
2023/08/10 11:39:40;;;;;;;2.13;0.98;;;;;;;22.57;42.64;154383.31;10591303;28;20039;-70
2023/08/10 11:44:48;;;;;;;0.95;0.70;;;;;;;23.75;39.52;154685.59;10591988;28;20127;-71
2023/08/10 11:49:50;;;;;;;0.70;0.60;;;;;;;24.25;39.25;154813.28;10590224;28;20114;-71
2023/08/10 11:54:53;;;;;;;1.77;0.77;;;;;;;24.58;39.08;154898.09;10590037;28;20439;-72
2023/08/10 11:59:55;;;;;;;0.88;0.75;;;;;;;24.78;37.92;154947.63;10591091;28;20047;-72
2023/08/10 12:05:00;;;;;;;0.90;0.85;;;;;;;24.83;34.60;154961.94;10589912;28;20482;-71
2023/08/10 12:10:03;;;;;;;1.05;0.80;;;;;;;24.96;35.30;154993.25;10589865;28;20039;-70
2023/08/10 12:15:15;;;;;;;0.90;0.68;;;;;;;25.19;36.41;155051.97;10589475;28;20036;-73
2023/08/10 12:20:18;;;;;;;0.65;0.50;;;;;;;24.91;35.95;154981.50;10580288;27;20085;-72
2023/08/10 12:25:23;;;;;;;1.33;1.02;;;;;;;23.72;37.06;154676.47;10589792;27;20063;-71
2023/08/10 12:30:25;;;;;;;1.67;0.65;;;;;;;24.46;36.10;154866.78;10622208;27;20389;-72
2023/08/10 12:35:28;;;;;;;1.20;0.73;;;;;;;24.28;37.44;154819.81;10630129;27;20068;-73
2023/08/10 12:40:31;;;;;;;0.75;0.70;;;;;;;24.84;35.57;154963.28;10620549;27;20401;-73
2023/08/10 12:45:33;;;;;;;1.00;0.60;;;;;;;24.89;35.34;154976.31;10586553;28;20450;-72
2023/08/10 12:50:36;;;;;;;1.25;0.95;;;;;;;24.11;37.48;154778.09;10586736;28;20039;-72
2023/08/10 12:55:38;;;;;;;1.85;0.90;;;;;;;24.26;36.68;154815.94;10618042;27;20045;-73
2023/08/10 13:00:40;;;;;;;1.58;0.68;;;;;;;24.54;36.21;154887.66;10594171;27;20089;-73
2023/08/10 13:05:42;;;;;;;0.95;0.73;;;;;;;25.05;34.24;155016.72;10586230;28;20454;-73
2023/08/10 13:10:45;;;;;;;0.90;0.57;;;;;;;25.49;35.72;155130.22;10571016;28;20165;-73
2023/08/10 13:15:47;;;;;;;0.70;0.70;;;;;;;25.12;36.30;155036.34;10588179;28;20113;-73
2023/08/10 13:20:52;;;;;;;1.10;0.75;;;;;;;24.73;36.17;154935.88;10587455;28;20445;-73
2023/08/10 13:25:54;;;;;;;1.30;0.93;;;;;;;24.45;36.10;154864.19;10590193;28;20135;-72
2023/08/10 13:30:56;;;;;;;1.20;0.80;;;;;;;24.64;36.56;154913.72;10571311;28;20496;-74
2023/08/10 13:36:00;;;;;;;1.30;0.90;;;;;;;24.67;35.40;154920.25;10588514;28;20047;-72
2023/08/10 13:41:02;;;;;;;1.20;0.93;;;;;;;23.73;36.61;154679.06;10591423;28;20470;-72
2023/08/10 13:46:05;;;;;;;0.80;0.80;;;;;;;23.38;39.31;154590.47;10573536;28;20044;-72
2023/08/10 13:51:07;;;;;;;0.85;0.85;;;;;;;23.78;37.72;154693.44;10593969;28;20047;-72
2023/08/10 13:56:09;;;;;;;1.58;0.85;;;;;;;24.34;38.84;154835.44;10591100;28;20181;-72
2023/08/10 14:01:12;;;;;;;1.55;1.00;;;;;;;24.30;36.40;154825.03;10587017;28;20067;-72
2023/08/10 14:06:14;;;;;;;1.00;1.00;;;;;;;23.88;38.21;154718.19;10589382;28;20032;-73
2023/08/10 14:11:16;;;;;;;0.85;0.85;;;;;;;24.01;38.29;154750.75;10593510;28;20043;-71
2023/08/10 14:16:18;;;;;;;1.10;1.00;;;;;;;23.63;39.51;154654.28;10610314;28;20118;-72
2023/08/10 14:21:20;;;;;;;1.33;1.02;;;;;;;23.40;40.01;154595.66;10629063;28;20035;-71
2023/08/10 14:26:24;;;;;;;3.08;0.90;;;;;;;23.69;38.86;154669.97;10628695;28;20058;-72
2023/08/10 14:31:26;;;;;;;1.60;1.10;;;;;;;23.73;38.46;154680.41;10626536;28;20146;-74
2023/08/10 14:36:30;;;;;;;1.08;0.88;;;;;;;23.95;37.76;154735.09;10626565;28;20047;-74
2023/08/10 14:41:32;;;;;;;1.00;0.90;;;;;;;23.74;38.67;154681.72;10626812;28;20078;-73
2023/08/10 14:46:34;;;;;;;1.77;1.10;;;;;;;23.84;38.30;154709.06;10626935;28;20477;-74
2023/08/10 14:51:36;;;;;;;1.10;0.90;;;;;;;23.88;39.22;154719.47;10626889;28;20225;-73
2023/08/10 14:56:38;;;;;;;1.33;1.02;;;;;;;23.83;40.06;154705.16;10614361;27;20035;-73
2023/08/10 15:01:40;;;;;;;1.13;1.13;;;;;;;23.49;38.94;154617.78;10634156;27;20043;-73
2023/08/10 15:06:43;;;;;;;1.35;1.00;;;;;;;23.44;39.67;154606.06;10607081;27;20074;-74
2023/08/10 15:11:44;;;;;;;1.17;1.00;;;;;;;23.06;41.38;154509.66;10624979;27;20043;-73
2023/08/10 15:16:46;;;;;;;1.98;1.38;;;;;;;23.17;40.99;154538.34;10590147;28;20036;-72
2023/08/10 15:21:48;;;;;;;2.03;1.20;;;;;;;23.05;41.74;154507.06;10589986;28;20039;-71
2023/08/10 15:26:50;;;;;;;1.52;0.90;;;;;;;23.06;40.12;154509.66;10590561;28;20063;-73
2023/08/10 15:31:52;;;;;;;1.08;0.90;;;;;;;23.25;39.52;154557.88;10589472;28;20035;-72
2023/08/10 15:36:55;;;;;;;1.58;1.00;;;;;;;23.01;40.43;154495.34;10588801;28;20070;-72
2023/08/10 15:41:57;;;;;;;1.08;0.90;;;;;;;23.05;40.04;154507.06;10589218;28;20047;-72
2023/08/10 15:46:59;;;;;;;1.25;0.93;;;;;;;22.62;41.14;154396.31;10588970;28;20039;-72
2023/08/10 15:52:01;;;;;;;1.67;1.10;;;;;;;22.41;42.19;154344.28;10589063;28;20546;-72
2023/08/10 15:57:03;;;;;;;0.95;0.90;;;;;;;23.57;38.34;154639.94;10588949;28;20097;-72
2023/08/10 16:02:06;;;;;;;2.50;1.00;;;;;;;23.74;38.44;154683.00;10589974;28;20383;-72
2023/08/10 16:07:08;;;;;;;34.58;12.23;;;;;;;23.63;39.77;154655.56;10587289;28;20051;-71
2023/08/10 16:12:10;;;;;;;3.70;1.38;;;;;;;23.48;37.96;154616.50;10588307;28;20048;-74
2023/08/10 16:17:12;;;;;;;1.85;0.85;;;;;;;23.00;37.95;154494.06;10588676;28;20038;-73
2023/08/10 16:22:14;;;;;;;1.23;1.00;;;;;;;22.64;39.43;154402.84;10589263;28;20043;-73
2023/08/10 16:27:18;;;;;;;1.08;0.88;;;;;;;22.55;40.07;154379.41;10587963;28;20036;-73
2023/08/10 16:32:20;;;;;;;1.85;0.93;;;;;;;22.39;40.65;154339.03;10569242;28;20058;-73
2023/08/10 16:37:22;;;;;;;1.20;0.80;;;;;;;22.32;41.34;154320.84;10587859;28;20501;-73
2023/08/10 16:42:24;;;;;;;0.90;0.80;;;;;;;22.16;41.44;154280.47;10588527;28;20086;-72
2023/08/10 16:47:25;;;;;;;1.50;1.13;;;;;;;22.37;41.28;154333.84;10569458;28;20039;-73
2023/08/10 16:52:27;;;;;;;1.30;1.00;;;;;;;22.24;41.38;154300.00;10569133;28;20047;-73
2023/08/10 16:57:30;;;;;;;1.25;0.80;;;;;;;21.95;42.73;154225.75;10587940;28;20035;-72
2023/08/10 17:02:31;;;;;;;1.85;1.00;;;;;;;21.77;42.88;154178.91;10568124;28;20047;-73
2023/08/10 17:07:33;;;;;;;1.17;0.80;;;;;;;21.76;43.58;154176.31;10586404;28;20458;-73
2023/08/10 17:12:35;;;;;;;1.40;1.00;;;;;;;21.98;42.83;154233.56;10584589;28;20039;-73
2023/08/10 17:17:37;;;;;;;1.90;1.17;;;;;;;21.60;43.38;154135.94;10584494;28;20122;-72
2023/08/10 17:22:38;;;;;;;1.20;1.08;;;;;;;21.51;44.26;154113.81;10567150;28;20075;-72
2023/08/10 17:27:41;;;;;;;0.93;0.93;;;;;;;21.30;44.14;154059.19;10584539;28;20047;-72
2023/08/10 17:32:43;;;;;;;1.77;1.30;;;;;;;21.29;44.37;154056.53;10584754;28;20035;-72
2023/08/10 17:37:45;;;;;;;1.58;1.10;;;;;;;21.26;44.86;154050.06;10584896;28;20046;-73
2023/08/10 17:42:47;;;;;;;1.30;1.20;;;;;;;21.06;45.59;153999.31;10585179;28;20047;-71
2023/08/10 17:47:49;;;;;;;2.60;1.95;;;;;;;20.95;45.78;153969.41;10584845;28;20051;-73
2023/08/10 17:52:50;;;;;;;3.03;2.72;;;;;;;20.86;46.57;153947.31;10585832;28;20046;-73
2023/08/10 17:57:52;;;;;;;3.28;2.38;;;;;;;20.59;47.26;153879.69;10584891;28;20461;-73
2023/08/10 18:02:54;;;;;;;2.83;2.30;;;;;;;20.56;47.94;153871.88;10584912;28;20485;-72
2023/08/10 18:07:56;;;;;;;1.63;1.20;;;;;;;20.68;53.60;153900.50;10584614;28;20039;-72
2023/08/10 18:12:58;;;;;;;1.58;1.20;;;;;;;20.36;54.34;153819.78;10585139;28;20040;-73
2023/08/10 18:18:00;;;;;;;2.00;1.10;;;;;;;20.21;56.20;153782.09;10584858;28;20051;-73
2023/08/10 18:23:02;;;;;;;1.75;1.48;;;;;;;20.06;57.04;153743.13;10584744;28;20385;-73
2023/08/10 18:28:04;;;;;;;2.17;1.42;;;;;;;19.57;59.09;153619.59;10585598;28;20054;-73
2023/08/10 18:33:06;;;;;;;1.80;1.38;;;;;;;19.38;59.99;153571.50;10595481;28;20036;-73
2023/08/10 18:38:08;;;;;;;1.70;1.40;;;;;;;19.07;61.73;153492.25;10596035;28;20036;-73
2023/08/10 18:43:11;;;;;;;3.22;1.70;;;;;;;18.90;61.92;153448.06;10595365;28;20180;-74
2023/08/10 18:48:14;;;;;;;3.15;2.00;;;;;;;18.73;62.42;153403.97;10595625;28;20122;-73
2023/08/10 18:53:18;;;;;;;5.47;3.13;;;;;;;18.60;63.59;153372.72;10593033;28;20044;-73
2023/08/10 18:58:22;;;;;;;8.75;3.00;;;;;;;18.43;64.08;153327.28;10593148;28;20088;-74
2023/08/10 19:03:25;;;;;;;12.73;3.22;;;;;;;18.30;65.28;153296.13;10592524;28;20378;-72
2023/08/10 19:08:27;;;;;;;9.45;3.03;;;;;;;18.08;66.33;153240.28;10593576;28;20040;-71
2023/08/10 19:13:31;;;;;;;6.57;2.63;;;;;;;17.89;68.01;153192.28;10594334;28;20401;-71
2023/08/10 19:18:36;;;;;;;6.90;2.70;;;;;;;17.88;67.70;153188.34;10593587;28;20043;-72
2023/08/10 19:23:40;;;;;;;6.75;2.92;;;;;;;18.02;67.72;153224.72;10592520;28;20043;-72
2023/08/10 19:28:42;;;;;;;6.03;3.08;;;;;;;17.87;68.22;153187.06;10574649;28;20044;-73
2023/08/10 19:33:44;;;;;;;5.15;2.80;;;;;;;17.95;68.22;153206.53;10593532;28;20036;-72
2023/08/10 19:38:46;;;;;;;4.32;2.85;;;;;;;17.82;69.72;153172.78;10592011;28;20043;-71
2023/08/10 19:43:49;;;;;;;3.65;2.67;;;;;;;17.87;70.45;153187.06;10593193;28;20040;-71
2023/08/10 19:48:51;;;;;;;5.93;2.58;;;;;;;17.86;70.85;153184.47;10591243;28;20046;-72
2023/08/10 19:53:53;;;;;;;2.40;2.20;;;;;;;17.86;71.12;153184.47;10572387;28;20038;-71
2023/08/10 19:58:55;;;;;;;4.00;2.40;;;;;;;17.93;71.27;153200.03;10590559;28;20048;-70
2023/08/10 20:03:57;;;;;;;3.60;2.85;;;;;;;18.02;71.96;153224.72;10589996;28;20032;-72
2023/08/10 20:08:59;;;;;;;3.25;2.72;;;;;;;18.10;73.00;153244.16;10591444;28;20043;-71
2023/08/10 20:14:01;;;;;;;8.23;2.78;;;;;;;18.12;72.54;153249.38;10589611;28;20047;-72
2023/08/10 20:19:04;;;;;;;3.55;2.22;;;;;;;18.06;72.04;153233.78;10589999;28;20054;-70
2023/08/10 20:24:07;;;;;;;4.22;3.08;;;;;;;18.32;72.83;153301.28;10588866;28;20063;-71
2023/08/10 20:29:09;;;;;;;4.45;2.70;;;;;;;18.18;73.19;153263.66;10569841;28;20078;-71
2023/08/10 20:34:10;;;;;;;3.92;2.92;;;;;;;18.09;73.32;153242.88;10569717;28;20066;-71
2023/08/10 20:39:12;;;;;;;4.25;3.30;;;;;;;18.04;73.70;153228.59;10587708;28;20557;-71
2023/08/10 20:44:14;;;;;;;5.40;3.55;;;;;;;17.97;74.83;153211.69;10587607;28;20035;-71
2023/08/10 20:49:18;;;;;;;4.60;3.75;;;;;;;18.00;74.04;153219.50;10587245;28;20067;-71
2023/08/10 20:54:20;;;;;;;4.38;3.72;;;;;;;17.96;73.97;153207.81;10568355;28;20044;-71
2023/08/10 20:59:22;;;;;;;5.20;4.30;;;;;;;18.00;73.08;153219.50;10586840;28;20039;-72
2023/08/10 21:04:24;;;;;;;5.22;4.20;;;;;;;18.08;73.75;153240.28;10586097;28;20448;-71
2023/08/10 21:09:26;;;;;;;4.95;4.03;;;;;;;18.00;75.33;153219.50;10585553;28;20040;-71
2023/08/10 21:14:28;;;;;;;7.60;4.05;;;;;;;18.13;77.44;153253.25;10567208;28;20043;-70
2023/08/10 21:19:30;;;;;;;4.18;3.22;;;;;;;18.12;79.98;153250.69;10585209;28;20451;-70
2023/08/10 21:24:31;;;;;;;4.07;3.65;;;;;;;17.94;80.04;153202.66;10585180;28;20062;-70
2023/08/10 21:29:33;;;;;;;4.70;4.07;;;;;;;17.97;79.85;153211.69;10586773;28;20097;-71
2023/08/10 21:34:35;;;;;;;5.45;4.07;;;;;;;18.06;81.29;153235.13;10584589;28;20048;-71
2023/08/10 21:39:37;;;;;;;6.45;4.75;;;;;;;18.18;80.71;153264.94;10584099;28;20057;-71
2023/08/10 21:44:39;;;;;;;4.45;4.05;;;;;;;17.94;80.76;153203.94;10584892;28;20093;-72
2023/08/10 21:49:41;;;;;;;5.53;3.75;;;;;;;17.74;81.77;153152.00;10587021;28;20040;-71
2023/08/10 21:54:45;;;;;;;4.22;3.83;;;;;;;17.63;81.41;153124.72;10584663;28;20104;-70
2023/08/10 21:59:49;;;;;;;4.05;3.42;;;;;;;17.59;80.76;153115.63;10584724;28;20084;-71
2023/08/10 22:04:57;;;;;;;6.75;3.65;;;;;;;17.56;79.63;153107.84;10582477;28;20459;-70
2023/08/10 22:10:03;;;;;;;3.58;3.25;;;;;;;17.53;79.60;153100.09;10584869;28;20051;-73
2023/08/10 22:15:09;;;;;;;3.47;3.15;;;;;;;17.55;79.04;153103.97;10585198;28;20071;-71
2023/08/10 22:20:11;;;;;;;3.55;3.20;;;;;;;17.52;79.50;153097.44;10583728;28;20043;-72
2023/08/10 22:25:15;;;;;;;5.25;4.32;;;;;;;17.50;79.67;153091.00;10583335;28;20043;-71
2023/08/10 22:30:18;;;;;;;4.80;4.03;;;;;;;17.66;84.03;153132.47;10566605;28;20044;-73
2023/08/10 22:35:20;;;;;;;7.53;4.50;;;;;;;17.61;85.49;153120.81;10584113;28;20394;-72
2023/08/10 22:40:25;;;;;;;4.95;4.50;;;;;;;17.57;83.60;153110.41;10582995;28;20054;-72
2023/08/10 22:45:30;;;;;;;4.88;4.32;;;;;;;17.52;83.07;153096.16;10566737;28;20522;-71
2023/08/10 22:50:44;;;;;;;4.82;4.43;;;;;;;17.41;83.81;153068.94;10542721;28;1184680;-72
2023/08/10 22:55:53;;;;;;;6.53;5.65;;;;;;;17.34;84.69;153050.75;10568360;28;20032;-72
2023/08/10 23:01:01;;;;;;;5.13;4.63;;;;;;;17.23;84.97;153022.22;10584818;28;20122;-72
2023/08/10 23:06:15;;;;;;;6.38;4.95;;;;;;;17.19;85.38;153011.84;10584857;28;20058;-72